Skip Navigation Links
NOAA logo - Click to go to the NOAA homepage
NOAA's National Weather Service
Alaska Aviation Weather Unit
  NWS logo - Click to go to the NWS homepage
Left Navbar Graphic     03 AKDT = 11 GMT

   
NOAA is celebrating 200 years of science, service, and stewardship. Visit the NOAA 200th celebration Web site to learn more.
USA.gov is the U.S. Government's official Web portal to all Federal, state and local government Web resources and services.
Facebook
NWS on Facebook

AAWU Home :: Display TAF Add Bookmark
METAR PAAK 290516Z 09016KT 10SM FEW043 OVC050 02/M04 A2962 RMK AO1
     TSNO=

METAR PAAK 290536Z 08016KT 10SM OVC050 02/M03 A2962 RMK AO1 TSNO=

METAR PAAK 290556Z 08012KT 10SM OVC050 02/M03 A2962 RMK AO1 10040 20020
     57007 TSNO=

METAR PAAK 290616Z 08011KT 10SM OVC050 02/M03 A2961 RMK AO1=

METAR PAAK 290636Z 08015G18KT 10SM OVC050 02/M04 A2961 RMK AO1=

METAR PAAK 290656Z 08013KT 10SM OVC050 02/M03 A2961 RMK AO1=

METAR PAAK 290716Z 08016KT 10SM OVC046 02/M04 A2961 RMK AO1=

METAR PAAK 290736Z 10013G18KT 10SM OVC048 02/M03 A2960 RMK AO1=

METAR PAAK 290816Z 09014KT 10SM OVC050 02/M05 A2960 RMK AO1=

METAR PAAK 290836Z 09013KT 10SM OVC050 02/M06 A2959 RMK AO1=

METAR PAAK 290856Z 09015KT 10SM OVC050 03/M07 A2959 RMK AO1 57010=

METAR PAAK 290916Z 09015KT 10SM OVC048 02/M04 A2958 RMK AO1=

METAR PAAK 290936Z 10016KT 10SM OVC044 03/M04 A2958 RMK AO1=

METAR PAAK 290956Z 09015G20KT 10SM OVC042 02/M04 A2957 RMK AO1=

METAR PAAK 291016Z 08016KT 10SM BKN048 OVC055 03/M04 A2956 RMK AO1=

METAR PAAK 291036Z 08017KT 10SM OVC050 03/M05 A2955 RMK AO1=

METAR PAAK 291056Z 08015KT 10SM OVC048 03/M04 A2955 RMK AO1=


NOAA's National Weather Service
Alaska Aviation Weather Unit
6930 Sand Lake Road
Anchorage, AK 99502-1845
Disclaimer
Credits
Glossary
Privacy Policy
About Us
Career Opportunities
Contact AAWU Internet Services Site last modified: April, 17th 2012